createdAt,value
2022-07-29T00:00:00.005Z,32.81
2022-07-29T00:02:27.662Z,32.35
2022-07-29T00:04:54.758Z,32.19
2022-07-29T00:07:21.453Z,32.79
2022-07-29T00:09:52.180Z,32.98
2022-07-29T00:12:25.488Z,33.54
2022-07-29T00:14:55.412Z,33.90
2022-07-29T00:17:23.529Z,33.01
2022-07-29T00:19:50.270Z,33.95
2022-07-29T00:22:16.945Z,33.20
2022-07-29T00:24:43.639Z,33.39
2022-07-29T00:27:10.329Z,33.14
2022-07-29T00:29:37.060Z,34.19
2022-07-29T00:32:04.002Z,34.93
2022-07-29T00:34:31.055Z,35.07
2022-07-29T00:36:58.251Z,35.93
2022-07-29T00:39:25.029Z,35.13
2022-07-29T00:41:54.289Z,35.38
2022-07-29T00:44:21.003Z,35.16
2022-07-29T00:46:48.024Z,35.92
2022-07-29T00:49:14.944Z,35.50
2022-07-29T00:51:41.883Z,35.29
2022-07-29T00:54:08.806Z,34.87
2022-07-29T00:56:35.654Z,35.33
2022-07-29T00:59:02.588Z,34.66
2022-07-29T01:01:29.478Z,34.19
2022-07-29T01:03:56.461Z,34.85
2022-07-29T01:06:25.869Z,34.91
2022-07-29T01:08:52.689Z,35.04
2022-07-29T01:11:20.196Z,35.28
2022-07-29T01:13:48.716Z,35.04
2022-07-29T01:16:36.373Z,35.00
2022-07-29T01:19:24.047Z,35.32
2022-07-29T01:21:50.707Z,35.55
2022-07-29T01:24:31.206Z,35.14
2022-07-29T01:27:25.337Z,35.15
2022-07-29T01:30:05.404Z,34.82
2022-07-29T01:32:41.157Z,34.78
2022-07-29T01:35:27.249Z,35.01
2022-07-29T01:38:07.878Z,35.07
2022-07-29T01:41:02.413Z,36.09
2022-07-29T01:43:56.636Z,35.25
2022-07-29T01:46:34.344Z,35.49
2022-07-29T01:49:11.023Z,35.53
2022-07-29T01:51:58.576Z,35.22
2022-07-29T01:54:51.756Z,34.18
2022-07-29T01:57:26.259Z,34.21
2022-07-29T01:59:57.257Z,34.45
2022-07-29T02:02:27.178Z,34.63
2022-07-29T02:04:57.280Z,34.78
2022-07-29T02:07:29.187Z,35.06
2022-07-29T02:09:59.135Z,36.39
2022-07-29T02:12:29.456Z,36.23
2022-07-29T02:15:02.397Z,36.48
2022-07-29T02:17:40.839Z,36.33
2022-07-29T02:20:10.521Z,37.40
2022-07-29T02:22:40.551Z,36.10
2022-07-29T02:25:13.809Z,35.96
2022-07-29T02:27:43.605Z,35.54
2022-07-29T02:30:11.080Z,35.35
2022-07-29T02:32:41.027Z,35.98
2022-07-29T02:35:10.218Z,35.47
2022-07-29T02:37:39.418Z,36.35
2022-07-29T02:40:12.025Z,36.66
2022-07-29T02:42:42.210Z,36.60
2022-07-29T02:45:10.378Z,36.60
2022-07-29T02:47:49.511Z,37.15
2022-07-29T02:50:35.586Z,37.63
2022-07-29T02:53:09.937Z,37.34
2022-07-29T02:55:55.950Z,36.20
2022-07-29T02:58:35.586Z,35.92
2022-07-29T03:01:21.651Z,36.74
2022-07-29T03:03:52.817Z,36.80
2022-07-29T03:06:31.369Z,36.45
2022-07-29T03:09:12.850Z,36.48
2022-07-29T03:11:50.364Z,36.82
2022-07-29T03:14:19.807Z,37.51
2022-07-29T03:16:48.052Z,36.67
2022-07-29T03:19:15.456Z,36.57
2022-07-29T03:21:42.543Z,37.27
2022-07-29T03:24:10.804Z,37.92
2022-07-29T03:26:37.971Z,37.29
2022-07-29T03:29:04.885Z,36.74
2022-07-29T03:31:31.792Z,37.73
2022-07-29T03:34:00.667Z,39.08
2022-07-29T03:36:27.657Z,40.29
2022-07-29T03:38:56.367Z,41.33
2022-07-29T03:41:26.621Z,40.57
2022-07-29T03:43:55.969Z,40.86
2022-07-29T03:46:29.362Z,40.54
2022-07-29T03:49:02.202Z,41.14
2022-07-29T03:51:31.538Z,43.92
2022-07-29T03:54:06.420Z,42.18
2022-07-29T03:56:42.070Z,43.25
2022-07-29T03:59:11.606Z,43.20
2022-07-29T04:01:39.991Z,43.49
2022-07-29T04:04:06.949Z,42.10
2022-07-29T04:06:44.973Z,41.76
2022-07-29T04:09:13.086Z,41.68
2022-07-29T04:12:02.383Z,41.42
2022-07-29T04:14:48.236Z,41.59
2022-07-29T04:17:15.152Z,42.84
2022-07-29T04:19:42.007Z,42.09
2022-07-29T04:22:08.822Z,41.72
2022-07-29T04:24:36.040Z,42.42
2022-07-29T04:27:02.886Z,43.19
2022-07-29T04:29:29.616Z,44.42
2022-07-29T04:31:56.591Z,44.76
2022-07-29T04:34:23.353Z,43.26
2022-07-29T04:36:55.554Z,43.35
2022-07-29T04:39:23.324Z,44.50
2022-07-29T04:41:51.279Z,43.89
2022-07-29T04:44:19.860Z,43.63
2022-07-29T04:46:46.842Z,43.06
2022-07-29T04:49:13.682Z,44.28
2022-07-29T04:51:40.490Z,44.09
2022-07-29T04:54:07.369Z,43.62
2022-07-29T04:56:34.126Z,43.40
2022-07-29T04:59:00.861Z,44.49
2022-07-29T05:01:27.883Z,43.53
2022-07-29T05:03:59.883Z,43.58
2022-07-29T05:06:27.297Z,46.41
2022-07-29T05:08:53.977Z,44.91
2022-07-29T05:11:22.439Z,45.22
2022-07-29T05:13:50.645Z,46.18
2022-07-29T05:16:17.413Z,47.06
2022-07-29T05:18:45.662Z,46.89
2022-07-29T05:21:14.985Z,45.61
2022-07-29T05:23:41.637Z,47.14
2022-07-29T05:26:08.299Z,48.32
2022-07-29T05:28:35.522Z,46.68
2022-07-29T05:31:02.291Z,46.22
2022-07-29T05:33:35.271Z,45.65
2022-07-29T05:36:06.221Z,46.05
2022-07-29T05:38:33.222Z,45.84
2022-07-29T05:41:00.124Z,46.41
2022-07-29T05:43:28.770Z,45.91
2022-07-29T05:45:55.907Z,45.74
2022-07-29T05:48:22.767Z,45.39
2022-07-29T05:50:49.440Z,45.59
2022-07-29T05:53:18.981Z,45.81
2022-07-29T05:55:47.602Z,45.50
2022-07-29T05:58:14.268Z,46.51
2022-07-29T06:00:41.233Z,46.82
2022-07-29T06:03:08.191Z,45.96
2022-07-29T06:05:35.058Z,47.21
2022-07-29T06:08:01.863Z,48.21
2022-07-29T06:10:28.540Z,49.44
2022-07-29T06:12:55.770Z,51.49
2022-07-29T06:15:22.424Z,53.91
2022-07-29T06:17:58.914Z,55.76
2022-07-29T06:20:31.281Z,58.88
2022-07-29T06:22:58.519Z,55.51
2022-07-29T06:25:25.220Z,57.31
2022-07-29T06:27:53.653Z,59.32
2022-07-29T06:30:20.493Z,56.64
2022-07-29T06:32:47.244Z,57.30
2022-07-29T06:38:00.677Z,56.95
2022-07-29T06:40:27.564Z,57.68
2022-07-29T06:42:54.416Z,57.30
2022-07-29T06:45:21.271Z,58.19
2022-07-29T06:47:47.935Z,57.98
2022-07-29T06:50:14.643Z,57.17
2022-07-29T06:52:41.390Z,56.75
2022-07-29T06:55:08.994Z,55.58
2022-07-29T06:57:36.001Z,55.10
2022-07-29T07:00:03.442Z,54.46
2022-07-29T07:02:30.224Z,54.17
2022-07-29T07:04:56.956Z,54.05
2022-07-29T07:07:23.935Z,51.21
2022-07-29T07:09:50.654Z,50.01
2022-07-29T07:12:17.551Z,49.42
2022-07-29T07:14:44.352Z,48.60
2022-07-29T07:17:11.000Z,48.37
2022-07-29T07:19:37.749Z,48.86
2022-07-29T07:22:04.818Z,48.91
2022-07-29T07:24:31.608Z,49.72
2022-07-29T07:26:58.447Z,49.15
2022-07-29T07:29:25.259Z,50.09
2022-07-29T07:31:53.506Z,48.99
2022-07-29T07:34:28.317Z,46.69
2022-07-29T07:36:56.436Z,44.53
2022-07-29T07:39:23.198Z,45.25
2022-07-29T07:41:49.923Z,42.86
2022-07-29T07:44:17.203Z,42.71
2022-07-29T07:46:44.347Z,43.75
2022-07-29T07:49:12.044Z,41.96
2022-07-29T07:51:38.784Z,44.68
2022-07-29T07:54:05.750Z,46.43
2022-07-29T07:56:35.292Z,46.56
2022-07-29T07:59:02.245Z,47.53
2022-07-29T08:01:29.072Z,47.38
2022-07-29T08:04:15.195Z,47.74
2022-07-29T08:06:42.578Z,48.59
2022-07-29T08:09:28.325Z,48.26
2022-07-29T08:11:56.752Z,49.68
2022-07-29T08:14:23.462Z,49.71
2022-07-29T08:16:50.301Z,49.16
2022-07-29T08:19:17.139Z,48.74
2022-07-29T08:21:43.913Z,49.26
2022-07-29T08:24:10.671Z,48.16
2022-07-29T08:26:37.522Z,48.45
2022-07-29T08:29:04.248Z,49.47
2022-07-29T08:31:31.053Z,49.80
2022-07-29T08:33:57.883Z,50.14
2022-07-29T08:36:25.553Z,49.03
2022-07-29T08:38:52.337Z,50.69
2022-07-29T08:41:20.956Z,50.59
2022-07-29T08:43:49.487Z,51.31
2022-07-29T08:46:17.059Z,50.83
2022-07-29T08:48:44.592Z,51.39
2022-07-29T08:51:16.456Z,49.94
2022-07-29T08:53:45.652Z,49.86
2022-07-29T08:56:13.865Z,50.19
2022-07-29T08:58:42.004Z,50.84
2022-07-29T09:01:15.121Z,51.06
2022-07-29T09:03:45.572Z,52.07
2022-07-29T09:06:18.948Z,51.98
2022-07-29T09:08:46.269Z,54.97
2022-07-29T09:11:14.472Z,53.82
2022-07-29T09:13:41.690Z,55.48
2022-07-29T09:16:09.491Z,54.75
2022-07-29T09:18:42.702Z,54.15
2022-07-29T09:21:12.585Z,53.01
2022-07-29T09:23:39.264Z,53.49
2022-07-29T09:26:06.984Z,52.69
2022-07-29T09:28:36.550Z,51.98
2022-07-29T09:31:03.450Z,52.08
2022-07-29T09:33:35.384Z,51.24
2022-07-29T09:36:09.474Z,52.50
2022-07-29T09:38:37.289Z,50.73
2022-07-29T09:41:06.703Z,51.66
2022-07-29T09:43:35.453Z,52.30
2022-07-29T09:46:12.819Z,51.67
2022-07-29T09:48:39.791Z,52.61
2022-07-29T09:51:06.590Z,51.35
2022-07-29T09:53:38.971Z,51.17
2022-07-29T09:56:06.145Z,51.95
2022-07-29T09:58:33.392Z,51.79
2022-07-29T10:01:02.509Z,50.29
2022-07-29T10:03:29.279Z,49.62
2022-07-29T10:06:25.201Z,50.80
2022-07-29T10:08:52.422Z,47.65
2022-07-29T10:11:22.794Z,47.91
2022-07-29T10:13:49.665Z,50.94
2022-07-29T10:16:17.529Z,49.20
2022-07-29T10:18:45.441Z,50.39
2022-07-29T10:21:34.860Z,48.35
2022-07-29T10:24:01.353Z,47.59
2022-07-29T10:26:30.424Z,49.59
2022-07-29T10:28:57.204Z,48.55
2022-07-29T10:31:37.451Z,48.31
2022-07-29T10:34:33.924Z,47.26
2022-07-29T10:37:18.151Z,47.38
2022-07-29T10:40:11.711Z,47.74
2022-07-29T10:42:43.591Z,48.49
2022-07-29T10:45:11.760Z,49.18
2022-07-29T10:47:39.204Z,49.25
2022-07-29T10:50:07.009Z,48.33
2022-07-29T10:52:54.652Z,47.90
2022-07-29T10:55:33.469Z,48.24
2022-07-29T10:58:23.866Z,49.94
2022-07-29T11:00:52.852Z,49.82
2022-07-29T11:03:49.652Z,50.40
2022-07-29T11:06:26.463Z,50.98
2022-07-29T11:09:16.959Z,50.54
2022-07-29T11:14:58.247Z,52.52
2022-07-29T11:17:24.988Z,50.14
2022-07-29T11:20:31.177Z,52.00
2022-07-29T11:22:59.537Z,53.60
2022-07-29T11:25:50.832Z,53.82
2022-07-29T11:28:25.038Z,60.17
2022-07-29T11:30:58.007Z,61.91
2022-07-29T11:33:54.293Z,66.19
2022-07-29T11:36:28.377Z,64.70
2022-07-29T11:39:27.356Z,65.73
2022-07-29T11:42:28.528Z,65.63
2022-07-29T11:45:09.060Z,67.67
2022-07-29T11:47:55.955Z,67.92
2022-07-29T11:50:36.592Z,64.74
2022-07-29T11:53:11.787Z,67.18
2022-07-29T11:55:51.356Z,67.51
2022-07-29T11:58:25.020Z,63.68
2022-07-29T12:00:53.141Z,65.95
2022-07-29T12:03:33.428Z,68.97
2022-07-29T12:06:07.602Z,67.92
2022-07-29T12:08:42.162Z,64.83
2022-07-29T12:11:17.274Z,67.04
2022-07-29T12:13:44.003Z,65.81
2022-07-29T12:16:12.779Z,65.74
2022-07-29T12:18:41.609Z,67.67
2022-07-29T12:21:08.434Z,64.56
2022-07-29T12:23:35.636Z,68.39
2022-07-29T12:26:07.646Z,67.42
2022-07-29T12:28:39.317Z,67.26
2022-07-29T12:31:06.384Z,67.14
2022-07-29T12:33:35.779Z,66.87
2022-07-29T12:36:07.633Z,64.33
2022-07-29T12:38:36.662Z,65.90
2022-07-29T12:41:04.460Z,64.18
2022-07-29T12:43:32.244Z,64.48
2022-07-29T12:46:12.140Z,62.91
2022-07-29T12:48:44.212Z,62.89
2022-07-29T12:51:12.197Z,66.29
2022-07-29T12:53:39.053Z,66.94
2022-07-29T12:56:20.710Z,65.44
2022-07-29T12:58:55.057Z,67.22
2022-07-29T13:01:22.620Z,66.11
2022-07-29T13:03:56.786Z,66.34
2022-07-29T13:06:37.749Z,65.67
2022-07-29T13:09:09.435Z,64.89
2022-07-29T13:11:46.568Z,65.42
2022-07-29T13:14:32.515Z,65.58
2022-07-29T13:17:06.912Z,66.71
2022-07-29T13:19:45.010Z,67.93
2022-07-29T13:22:18.703Z,66.92
2022-07-29T13:24:58.832Z,66.53
2022-07-29T13:27:28.069Z,64.30
2022-07-29T13:29:56.746Z,63.65
2022-07-29T13:32:28.258Z,63.61
2022-07-29T13:34:57.319Z,64.71
2022-07-29T13:37:24.177Z,61.58
2022-07-29T13:39:53.257Z,62.21
2022-07-29T13:42:20.685Z,62.27
2022-07-29T13:44:47.439Z,62.21
2022-07-29T13:47:14.097Z,63.39
2022-07-29T13:49:41.066Z,64.37
2022-07-29T13:52:07.758Z,63.16
2022-07-29T13:54:38.799Z,62.36
2022-07-29T13:57:08.786Z,59.20
2022-07-29T13:59:35.453Z,58.60
2022-07-29T14:02:02.219Z,57.41
2022-07-29T14:04:28.956Z,60.42
2022-07-29T14:06:55.808Z,59.25
2022-07-29T14:09:22.499Z,58.85
2022-07-29T14:11:49.245Z,57.63
2022-07-29T14:14:16.237Z,58.03
2022-07-29T14:16:47.890Z,57.97
2022-07-29T14:19:17.335Z,55.42
2022-07-29T14:21:54.611Z,56.21
2022-07-29T14:24:23.989Z,55.29
2022-07-29T14:26:52.626Z,55.34
2022-07-29T14:29:19.286Z,53.99
2022-07-29T14:31:46.031Z,50.27
2022-07-29T14:34:12.771Z,53.03
2022-07-29T14:36:39.455Z,52.99
2022-07-29T14:39:07.335Z,52.57
2022-07-29T14:41:34.010Z,52.97
2022-07-29T14:44:00.749Z,54.25
2022-07-29T14:46:28.460Z,55.38
2022-07-29T14:48:55.254Z,55.37
2022-07-29T14:51:21.936Z,56.98
2022-07-29T14:53:48.621Z,56.07
2022-07-29T14:56:36.166Z,55.97
2022-07-29T14:59:02.070Z,57.97
2022-07-29T15:01:28.908Z,56.48
2022-07-29T15:03:59.555Z,57.00
2022-07-29T15:06:27.981Z,57.02
2022-07-29T15:08:54.715Z,57.12
2022-07-29T15:11:21.401Z,55.81
2022-07-29T15:13:48.062Z,54.41
2022-07-29T15:16:14.858Z,54.62
2022-07-29T15:18:41.562Z,56.11
2022-07-29T15:21:08.342Z,55.28
2022-07-29T15:23:35.397Z,55.65
2022-07-29T15:26:02.124Z,54.77
2022-07-29T15:28:28.942Z,55.60
2022-07-29T15:30:55.722Z,55.83
2022-07-29T15:33:23.561Z,55.01
2022-07-29T15:35:52.732Z,56.62
2022-07-29T15:38:19.422Z,54.21
2022-07-29T15:40:46.103Z,56.84
2022-07-29T15:43:12.858Z,56.14
2022-07-29T15:45:42.126Z,56.42
2022-07-29T15:48:14.628Z,57.50
2022-07-29T15:50:41.668Z,58.44
2022-07-29T15:53:08.359Z,57.91
2022-07-29T15:55:34.998Z,57.07
2022-07-29T15:58:01.705Z,57.05
2022-07-29T16:00:28.432Z,56.57
2022-07-29T16:02:55.930Z,55.75
2022-07-29T16:05:22.709Z,55.55
2022-07-29T16:07:49.536Z,55.58
2022-07-29T16:10:16.190Z,55.45
2022-07-29T16:12:42.850Z,56.94
2022-07-29T16:15:10.633Z,52.98
2022-07-29T16:17:38.465Z,52.64
2022-07-29T16:20:05.955Z,54.26
2022-07-29T16:22:32.750Z,54.72
2022-07-29T16:24:59.419Z,53.64
2022-07-29T16:27:26.453Z,55.08
2022-07-29T16:30:02.093Z,55.70
2022-07-29T16:32:28.862Z,55.83
2022-07-29T16:34:55.573Z,55.23
2022-07-29T16:37:22.296Z,54.66
2022-07-29T16:39:48.939Z,55.55
2022-07-29T16:42:30.983Z,55.69
2022-07-29T16:45:03.119Z,57.20
2022-07-29T16:47:29.927Z,55.74
2022-07-29T16:49:56.813Z,55.61
2022-07-29T16:52:23.779Z,55.84
2022-07-29T16:54:50.653Z,55.02
2022-07-29T16:57:17.436Z,53.87
2022-07-29T16:59:44.204Z,55.26
2022-07-29T17:02:10.955Z,54.75
2022-07-29T17:04:37.717Z,51.13
2022-07-29T17:07:04.371Z,49.79
2022-07-29T17:09:31.068Z,48.96
2022-07-29T17:11:57.735Z,49.81
2022-07-29T17:14:29.375Z,49.52
2022-07-29T17:17:00.294Z,49.25
2022-07-29T17:19:31.362Z,49.61
2022-07-29T17:22:06.760Z,50.66
2022-07-29T17:24:38.277Z,49.42
2022-07-29T17:27:05.947Z,49.15
2022-07-29T17:29:32.770Z,48.46
2022-07-29T17:31:59.469Z,48.85
2022-07-29T17:34:26.542Z,47.78
2022-07-29T17:36:53.359Z,48.78
2022-07-29T17:39:20.120Z,48.76
2022-07-29T17:41:46.810Z,49.73
2022-07-29T17:44:13.981Z,47.23
2022-07-29T17:46:40.796Z,46.40
2022-07-29T17:49:07.560Z,45.90
2022-07-29T17:51:34.452Z,46.07
2022-07-29T17:54:01.179Z,47.61
2022-07-29T17:56:27.854Z,48.95
2022-07-29T17:58:54.572Z,45.65
2022-07-29T18:01:21.310Z,45.57
2022-07-29T18:03:48.056Z,47.01
2022-07-29T18:06:14.732Z,48.08
2022-07-29T18:08:41.499Z,50.15
2022-07-29T18:11:08.165Z,52.99
2022-07-29T18:13:41.721Z,54.68
2022-07-29T18:16:09.435Z,54.76
2022-07-29T18:18:36.382Z,56.00
2022-07-29T18:21:04.396Z,56.59
2022-07-29T18:23:31.345Z,54.88
2022-07-29T18:25:58.055Z,55.46
2022-07-29T18:28:25.736Z,55.75
2022-07-29T18:30:52.913Z,54.04
2022-07-29T18:33:21.614Z,54.66
2022-07-29T18:35:50.901Z,56.37
2022-07-29T18:38:17.827Z,57.34
2022-07-29T18:40:44.603Z,57.46
2022-07-29T18:43:11.761Z,58.15
2022-07-29T18:45:38.465Z,57.25
2022-07-29T18:48:06.784Z,55.91
2022-07-29T18:50:33.553Z,56.58
2022-07-29T18:53:00.299Z,55.65
2022-07-29T18:55:27.008Z,56.49
2022-07-29T18:57:56.689Z,61.28
2022-07-29T19:00:24.757Z,62.41
2022-07-29T19:02:51.980Z,61.64
2022-07-29T19:05:19.022Z,62.21
2022-07-29T19:07:45.718Z,61.79
2022-07-29T19:10:12.536Z,62.84
2022-07-29T19:12:39.200Z,62.89
2022-07-29T19:15:06.250Z,62.77
2022-07-29T19:17:32.969Z,63.05
2022-07-29T19:19:59.996Z,61.36
2022-07-29T19:22:26.686Z,62.85
2022-07-29T19:24:53.358Z,62.49
2022-07-29T19:27:21.411Z,59.28
2022-07-29T19:29:48.146Z,58.58
2022-07-29T19:32:24.799Z,58.46
2022-07-29T19:34:52.401Z,59.34
2022-07-29T19:37:19.151Z,60.17
2022-07-29T19:39:45.822Z,60.33
2022-07-29T19:42:12.641Z,60.11
2022-07-29T19:44:39.381Z,60.69
2022-07-29T19:47:06.092Z,60.47
2022-07-29T19:49:32.849Z,59.06
2022-07-29T19:51:59.887Z,59.28
2022-07-29T19:54:26.651Z,59.84
2022-07-29T19:56:53.359Z,59.11
2022-07-29T19:59:23.860Z,58.91
2022-07-29T20:01:51.386Z,59.39
2022-07-29T20:04:18.075Z,58.55
2022-07-29T20:06:44.783Z,59.17
2022-07-29T20:09:20.353Z,59.53
2022-07-29T20:11:47.230Z,58.92
2022-07-29T20:14:14.002Z,58.06
2022-07-29T20:16:40.726Z,57.91
2022-07-29T20:19:07.473Z,58.40
2022-07-29T20:21:34.177Z,59.68
2022-07-29T20:24:02.919Z,59.31
2022-07-29T20:26:34.035Z,58.50
2022-07-29T20:29:00.808Z,57.31
2022-07-29T20:31:27.904Z,58.32
2022-07-29T20:33:54.694Z,58.19
2022-07-29T20:36:21.453Z,58.25
2022-07-29T20:38:48.148Z,58.03
2022-07-29T20:41:15.431Z,57.49
2022-07-29T20:43:43.126Z,57.64
2022-07-29T20:46:10.004Z,57.40
2022-07-29T20:48:36.993Z,58.07
2022-07-29T20:51:03.695Z,57.74
2022-07-29T20:53:30.502Z,58.21
2022-07-29T20:55:57.295Z,57.41
2022-07-29T20:58:24.056Z,57.30
2022-07-29T21:00:51.295Z,56.20
2022-07-29T21:03:18.061Z,56.37
2022-07-29T21:05:44.908Z,57.03
2022-07-29T21:08:11.701Z,57.49
2022-07-29T21:10:38.361Z,57.74
2022-07-29T21:13:05.112Z,57.99
2022-07-29T21:15:32.342Z,57.52
2022-07-29T21:17:59.279Z,56.85
2022-07-29T21:20:26.638Z,58.23
2022-07-29T21:22:53.404Z,57.62
2022-07-29T21:25:20.106Z,59.21
2022-07-29T21:27:47.999Z,58.25
2022-07-29T21:30:14.755Z,58.57
2022-07-29T21:32:41.622Z,59.28
2022-07-29T21:35:14.501Z,58.92
2022-07-29T21:37:54.234Z,57.95
2022-07-29T21:40:21.435Z,57.88
2022-07-29T21:42:48.162Z,57.76
2022-07-29T21:45:16.561Z,56.95
2022-07-29T21:47:43.290Z,57.89
2022-07-29T21:50:10.098Z,58.09
2022-07-29T21:52:37.315Z,58.52
2022-07-29T21:55:04.516Z,57.91
2022-07-29T21:57:31.367Z,59.57
2022-07-29T22:00:02.511Z,58.68
2022-07-29T22:02:29.993Z,57.24
2022-07-29T22:04:56.695Z,57.86
2022-07-29T22:07:24.449Z,58.16
2022-07-29T22:10:11.178Z,57.24
2022-07-29T22:12:37.899Z,57.68
2022-07-29T22:15:05.410Z,58.30
2022-07-29T22:17:32.203Z,58.15
2022-07-29T22:19:58.922Z,57.65
2022-07-29T22:22:25.741Z,57.77
2022-07-29T22:24:52.729Z,58.58
2022-07-29T22:27:19.521Z,58.83
2022-07-29T22:29:46.224Z,58.47
2022-07-29T22:32:13.080Z,58.15
2022-07-29T22:34:39.820Z,58.01
2022-07-29T22:37:07.052Z,58.60
2022-07-29T22:39:33.759Z,59.39
2022-07-29T22:42:00.542Z,59.38
2022-07-29T22:44:27.319Z,59.20
2022-07-29T22:46:54.023Z,58.74
2022-07-29T22:49:20.868Z,59.29
2022-07-29T22:51:47.661Z,58.61
2022-07-29T22:54:14.556Z,58.29
2022-07-29T22:56:41.499Z,57.20
2022-07-29T22:59:08.227Z,56.86
2022-07-29T23:01:37.550Z,58.32
2022-07-29T23:04:04.619Z,57.90
2022-07-29T23:06:31.465Z,57.29
2022-07-29T23:08:58.202Z,57.27
2022-07-29T23:11:25.114Z,56.64
2022-07-29T23:13:53.992Z,56.96
2022-07-29T23:16:26.477Z,57.65
2022-07-29T23:18:54.497Z,57.58
2022-07-29T23:21:21.605Z,56.82
2022-07-29T23:23:49.272Z,57.58
2022-07-29T23:26:16.471Z,57.31
2022-07-29T23:28:46.320Z,56.80
2022-07-29T23:31:13.118Z,57.16
2022-07-29T23:33:41.084Z,57.74
2022-07-29T23:36:08.010Z,59.35
2022-07-29T23:38:34.766Z,59.72
2022-07-29T23:41:02.743Z,60.61
2022-07-29T23:43:29.456Z,60.23
2022-07-29T23:45:56.366Z,60.39
2022-07-29T23:48:25.010Z,60.04
2022-07-29T23:50:51.898Z,59.24
2022-07-29T23:53:18.812Z,58.92
2022-07-29T23:55:45.509Z,58.26
2022-07-29T23:58:12.293Z,59.29
